Time;durP1;ratioP1;P1;durP2;ratioP2;P2;SDS_P1;SDS_P2;PMS_P1;PMS_P2;Temp;Humidity;BMP_temperature;BMP_pressure;BME280_temperature;BME280_humidity;BME280_pressure;Samples;Min_cycle;Max_cycle;Signal;HPM_P1;HPM_P2
2022/07/22 00:00:44;;;;;;;10.60;8.60;;;;;;;;;;5109926;28;20053;-84
2022/07/22 00:03:10;;;;;;;13.68;9.05;;;;;;;;;;5105577;28;20415;-86
2022/07/22 00:05:36;;;;;;;12.95;8.77;;;;;;;;;;5124117;28;20027;-86
2022/07/22 00:08:03;;;;;;;10.07;7.60;;;;;;;;;;5109823;28;20087;-86
2022/07/22 00:10:30;;;;;;;11.55;9.13;;;;;;;;;;5120286;28;20024;-83
2022/07/22 00:12:56;;;;;;;10.98;8.48;;;;;;;;;;5126603;28;20024;-85
2022/07/22 00:15:22;;;;;;;10.93;9.10;;;;;;;;;;5124854;28;20087;-85
2022/07/22 00:17:48;;;;;;;11.88;8.70;;;;;;;;;;5125702;28;20032;-84
2022/07/22 00:20:14;;;;;;;13.82;8.95;;;;;;;;;;5118842;28;20024;-84
2022/07/22 00:22:40;;;;;;;11.68;8.15;;;;;;;;;;5118682;28;20027;-83
2022/07/22 00:25:07;;;;;;;11.93;8.52;;;;;;;;;;5111053;28;20806;-84
2022/07/22 00:27:33;;;;;;;12.00;8.98;;;;;;;;;;5117939;28;20036;-84
2022/07/22 00:29:59;;;;;;;10.65;8.25;;;;;;;;;;5117154;28;20111;-83
2022/07/22 00:32:25;;;;;;;11.68;8.88;;;;;;;;;;5119740;28;20042;-84
2022/07/22 00:34:52;;;;;;;11.05;8.52;;;;;;;;;;5107219;28;20393;-85
2022/07/22 00:37:18;;;;;;;9.55;7.78;;;;;;;;;;5125402;28;20078;-85
2022/07/22 00:39:44;;;;;;;13.30;9.60;;;;;;;;;;5116746;28;20096;-82
2022/07/22 00:42:10;;;;;;;13.77;8.80;;;;;;;;;;5115789;28;20034;-82
2022/07/22 00:44:36;;;;;;;12.88;9.60;;;;;;;;;;5123715;28;20051;-85
2022/07/22 00:47:02;;;;;;;12.38;8.73;;;;;;;;;;5122858;28;20028;-83
2022/07/22 00:49:28;;;;;;;11.30;8.45;;;;;;;;;;5119597;28;20579;-85
2022/07/22 00:51:55;;;;;;;11.02;8.27;;;;;;;;;;5120361;28;20012;-82
2022/07/22 00:54:21;;;;;;;13.35;8.45;;;;;;;;;;5123106;28;20020;-83
2022/07/22 00:56:47;;;;;;;11.80;8.82;;;;;;;;;;5112755;28;20024;-84
2022/07/22 00:59:13;;;;;;;10.27;8.02;;;;;;;;;;5123391;28;20455;-83
2022/07/22 01:01:41;;;;;;;14.40;8.48;;;;;;;;;;5123258;28;20110;-85
2022/07/22 01:04:08;;;;;;;12.27;9.10;;;;;;;;;;5121907;28;20034;-85
2022/07/22 01:06:35;;;;;;;11.85;8.55;;;;;;;;;;5121997;28;20043;-83
2022/07/22 01:09:01;;;;;;;10.75;8.40;;;;;;;;;;5114939;28;20028;-81
2022/07/22 01:11:27;;;;;;;13.00;8.57;;;;;;;;;;5118579;28;20024;-82
2022/07/22 01:13:54;;;;;;;10.68;8.35;;;;;;;;;;5113471;28;20020;-84
2022/07/22 01:16:21;;;;;;;14.55;8.77;;;;;;;;;;5114638;28;20020;-86
2022/07/22 01:18:47;;;;;;;13.93;9.57;;;;;;;;;;5122415;28;20062;-82
2022/07/22 01:21:14;;;;;;;12.88;8.88;;;;;;;;;;5106249;28;20038;-84
2022/07/22 01:23:40;;;;;;;15.07;9.50;;;;;;;;;;5121285;28;20099;-83
2022/07/22 01:26:06;;;;;;;12.55;9.48;;;;;;;;;;5118101;28;20114;-81
2022/07/22 01:28:32;;;;;;;12.65;10.07;;;;;;;;;;5104248;28;20047;-84
2022/07/22 01:30:59;;;;;;;10.65;8.82;;;;;;;;;;5117224;28;20030;-85
2022/07/22 01:33:25;;;;;;;12.05;9.55;;;;;;;;;;5103392;28;20035;-85
2022/07/22 01:35:52;;;;;;;11.63;8.95;;;;;;;;;;5106865;28;20020;-84
2022/07/22 01:38:18;;;;;;;12.95;8.93;;;;;;;;;;5106836;28;20024;-87
2022/07/22 01:40:46;;;;;;;14.85;10.30;;;;;;;;;;5104655;28;20053;-85
2022/07/22 01:43:17;;;;;;;11.27;9.20;;;;;;;;;;5105792;27;20036;-83
2022/07/22 01:45:43;;;;;;;14.35;9.80;;;;;;;;;;5107749;28;20035;-87
2022/07/22 01:48:09;;;;;;;11.80;8.73;;;;;;;;;;5105443;28;20040;-85
2022/07/22 01:50:36;;;;;;;14.52;10.48;;;;;;;;;;5103547;28;20019;-85
2022/07/22 01:53:03;;;;;;;15.77;11.07;;;;;;;;;;5108532;28;20740;-88
2022/07/22 01:55:29;;;;;;;12.13;9.88;;;;;;;;;;5107716;28;20043;-86
2022/07/22 01:57:55;;;;;;;14.40;10.45;;;;;;;;;;5112376;28;20027;-86
2022/07/22 02:00:23;;;;;;;14.73;9.95;;;;;;;;;;5114755;28;20120;-86
2022/07/22 02:02:50;;;;;;;15.25;9.88;;;;;;;;;;5106811;28;20064;-85
2022/07/22 02:05:16;;;;;;;13.45;9.15;;;;;;;;;;5123321;28;20065;-85
2022/07/22 02:07:43;;;;;;;14.75;9.75;;;;;;;;;;5122189;28;20057;-85
2022/07/22 02:10:14;;;;;;;10.40;8.65;;;;;;;;;;5121873;28;20035;-82
2022/07/22 02:12:40;;;;;;;11.27;9.18;;;;;;;;;;5122567;28;20031;-85
2022/07/22 02:15:08;;;;;;;16.08;10.05;;;;;;;;;;5124642;28;20520;-82
2022/07/22 02:17:34;;;;;;;13.32;10.05;;;;;;;;;;5123756;28;20016;-85
2022/07/22 02:20:00;;;;;;;12.13;9.27;;;;;;;;;;5112185;28;20059;-83
2022/07/22 02:22:27;;;;;;;14.98;10.25;;;;;;;;;;5110787;28;20123;-83
2022/07/22 02:24:54;;;;;;;13.15;9.57;;;;;;;;;;5110530;28;20024;-83
2022/07/22 02:27:22;;;;;;;15.20;10.05;;;;;;;;;;5127887;28;20039;-86
2022/07/22 02:29:48;;;;;;;14.73;9.90;;;;;;;;;;5128776;28;20016;-85
2022/07/22 02:32:14;;;;;;;12.25;9.75;;;;;;;;;;5104016;28;20024;-82
2022/07/22 02:34:41;;;;;;;14.02;9.60;;;;;;;;;;5109351;28;20031;-82
2022/07/22 02:37:07;;;;;;;13.55;9.73;;;;;;;;;;5120683;28;20063;-85
2022/07/22 02:39:33;;;;;;;14.43;10.43;;;;;;;;;;5122312;28;20035;-83
2022/07/22 02:41:59;;;;;;;13.50;10.00;;;;;;;;;;5121708;28;20073;-84
2022/07/22 02:44:25;;;;;;;16.17;10.90;;;;;;;;;;5114162;28;20071;-86
2022/07/22 02:46:54;;;;;;;17.75;12.85;;;;;;;;;;5102107;28;20032;-84
2022/07/22 02:49:21;;;;;;;17.52;12.05;;;;;;;;;;5107813;28;20042;-85
2022/07/22 02:51:47;;;;;;;18.10;11.85;;;;;;;;;;5116932;28;20035;-83
2022/07/22 02:54:21;;;;;;;15.80;12.02;;;;;;;;;;5122834;28;20024;-84
2022/07/22 02:56:49;;;;;;;14.18;10.82;;;;;;;;;;5122890;28;20039;-86
2022/07/22 02:59:24;;;;;;;15.80;11.25;;;;;;;;;;5106454;28;20036;-84
2022/07/22 03:01:50;;;;;;;16.40;10.45;;;;;;;;;;5119044;28;20080;-85
2022/07/22 03:04:16;;;;;;;14.48;10.25;;;;;;;;;;5125750;28;20039;-87
2022/07/22 03:06:43;;;;;;;16.45;10.27;;;;;;;;;;5120335;28;20028;-84
2022/07/22 03:09:12;;;;;;;13.73;10.20;;;;;;;;;;5117310;28;20054;-85
2022/07/22 03:11:41;;;;;;;15.43;10.82;;;;;;;;;;5114022;28;20028;-85
2022/07/22 03:14:11;;;;;;;15.00;10.23;;;;;;;;;;5118634;28;20044;-86
2022/07/22 03:16:38;;;;;;;14.50;10.27;;;;;;;;;;5109308;28;20027;-83
2022/07/22 03:19:10;;;;;;;14.30;10.18;;;;;;;;;;5119694;28;20031;-86
2022/07/22 03:21:38;;;;;;;17.20;11.38;;;;;;;;;;5117888;27;20095;-86
2022/07/22 03:27:10;;;;;;;14.32;10.48;;;;;;;;;;5072382;28;20117;-84
2022/07/22 03:29:49;;;;;;;12.90;10.48;;;;;;;;;;5085565;28;20039;-84
2022/07/22 03:32:18;;;;;;;12.77;9.50;;;;;;;;;;5119087;27;20558;-86
2022/07/22 03:34:47;;;;;;;16.42;10.20;;;;;;;;;;5120990;27;20042;-86
2022/07/22 03:37:16;;;;;;;11.27;9.67;;;;;;;;;;5116374;28;20055;-86
2022/07/22 03:39:46;;;;;;;14.00;10.57;;;;;;;;;;5111005;27;20302;-86
2022/07/22 03:42:28;;;;;;;22.00;10.93;;;;;;;;;;5121432;28;20055;-84
2022/07/22 03:44:58;;;;;;;13.23;10.20;;;;;;;;;;5126549;28;20030;-87
2022/07/22 03:47:24;;;;;;;12.93;10.25;;;;;;;;;;5109178;28;20047;-86
2022/07/22 03:49:58;;;;;;;14.05;10.10;;;;;;;;;;5127316;28;20034;-86
2022/07/22 03:52:25;;;;;;;14.77;9.93;;;;;;;;;;5125432;28;20107;-83
2022/07/22 03:54:51;;;;;;;15.30;9.90;;;;;;;;;;5107069;28;20047;-87
2022/07/22 03:57:18;;;;;;;13.38;9.98;;;;;;;;;;5120255;28;20027;-84
2022/07/22 03:59:44;;;;;;;14.73;10.05;;;;;;;;;;5106843;28;20119;-84
2022/07/22 04:02:10;;;;;;;14.32;9.40;;;;;;;;;;5125235;28;20031;-84
2022/07/22 04:04:36;;;;;;;15.98;10.10;;;;;;;;;;5116279;28;20075;-88
2022/07/22 04:07:02;;;;;;;16.20;10.20;;;;;;;;;;5123653;28;20114;-81
2022/07/22 04:09:28;;;;;;;13.00;9.23;;;;;;;;;;5125138;28;20031;-84
2022/07/22 04:11:58;;;;;;;13.05;9.48;;;;;;;;;;5095132;28;20099;-86
2022/07/22 04:14:25;;;;;;;11.05;9.07;;;;;;;;;;5126751;28;20057;-87
2022/07/22 04:16:54;;;;;;;11.73;8.73;;;;;;;;;;5126055;28;20054;-86
2022/07/22 04:19:21;;;;;;;12.77;9.55;;;;;;;;;;5115550;28;20027;-85
2022/07/22 04:21:51;;;;;;;11.32;8.43;;;;;;;;;;5126156;28;20450;-86
2022/07/22 04:24:18;;;;;;;13.47;9.63;;;;;;;;;;5116983;28;20039;-86
2022/07/22 04:26:44;;;;;;;12.45;8.70;;;;;;;;;;5120735;28;20058;-87
2022/07/22 04:29:10;;;;;;;13.48;8.85;;;;;;;;;;5113101;28;20474;-84
2022/07/22 04:31:36;;;;;;;12.63;8.57;;;;;;;;;;5090104;28;20019;-85
2022/07/22 04:34:08;;;;;;;15.45;8.77;;;;;;;;;;5119507;28;20103;-86
2022/07/22 04:36:34;;;;;;;15.07;9.25;;;;;;;;;;5110072;28;20027;-83
2022/07/22 04:39:00;;;;;;;13.57;9.05;;;;;;;;;;5112368;28;20062;-83
2022/07/22 04:41:27;;;;;;;14.82;9.55;;;;;;;;;;5105534;28;20024;-84
2022/07/22 04:43:53;;;;;;;13.45;8.93;;;;;;;;;;5118655;28;20032;-85
2022/07/22 04:46:21;;;;;;;14.75;9.68;;;;;;;;;;5114868;28;20156;-83
2022/07/22 04:48:48;;;;;;;14.05;9.27;;;;;;;;;;5117840;28;20043;-86
2022/07/22 04:51:16;;;;;;;12.82;9.25;;;;;;;;;;5117323;28;20024;-84
2022/07/22 04:53:42;;;;;;;12.80;9.00;;;;;;;;;;5115171;28;20024;-87
2022/07/22 04:56:09;;;;;;;12.60;8.40;;;;;;;;;;5119078;28;20055;-84
2022/07/22 04:58:38;;;;;;;12.30;9.38;;;;;;;;;;5123710;28;20011;-88
2022/07/22 05:01:06;;;;;;;13.25;9.95;;;;;;;;;;5125158;28;20023;-86
2022/07/22 05:03:34;;;;;;;13.25;9.40;;;;;;;;;;5116589;28;20103;-84
2022/07/22 05:06:00;;;;;;;14.05;9.15;;;;;;;;;;5113314;28;20478;-84
2022/07/22 05:08:26;;;;;;;13.05;9.48;;;;;;;;;;5112812;28;20042;-84
2022/07/22 05:10:54;;;;;;;12.10;9.55;;;;;;;;;;5103646;28;20077;-82
2022/07/22 05:13:20;;;;;;;14.93;10.52;;;;;;;;;;5111487;28;20023;-86
2022/07/22 05:15:46;;;;;;;15.02;11.13;;;;;;;;;;5114709;28;20031;-83
2022/07/22 05:18:12;;;;;;;18.77;11.48;;;;;;;;;;5108372;28;20023;-85
2022/07/22 05:20:38;;;;;;;15.18;10.50;;;;;;;;;;5116774;28;20024;-83
2022/07/22 05:23:04;;;;;;;18.67;10.73;;;;;;;;;;5112310;28;20024;-83
2022/07/22 05:25:30;;;;;;;14.75;10.63;;;;;;;;;;5110408;28;20039;-85
2022/07/22 05:27:56;;;;;;;15.50;11.02;;;;;;;;;;5116111;28;20051;-82
2022/07/22 05:30:22;;;;;;;16.08;11.60;;;;;;;;;;5112444;28;20032;-84
2022/07/22 05:32:48;;;;;;;18.67;10.32;;;;;;;;;;5113909;28;20043;-80
2022/07/22 05:35:14;;;;;;;15.32;10.82;;;;;;;;;;5107880;28;20069;-84
2022/07/22 05:37:40;;;;;;;11.50;9.07;;;;;;;;;;5115559;28;20027;-84
2022/07/22 05:40:07;;;;;;;14.20;8.98;;;;;;;;;;5121557;28;20122;-83
2022/07/22 05:42:33;;;;;;;9.70;8.43;;;;;;;;;;5117486;28;20087;-83
2022/07/22 05:44:59;;;;;;;14.57;8.23;;;;;;;;;;5108924;28;20023;-83
2022/07/22 05:47:25;;;;;;;10.65;7.57;;;;;;;;;;5114531;28;20020;-84
2022/07/22 05:49:52;;;;;;;14.10;7.60;;;;;;;;;;5111589;28;20035;-83
2022/07/22 05:52:18;;;;;;;11.23;6.47;;;;;;;;;;5115877;28;20020;-85
2022/07/22 05:54:44;;;;;;;10.48;6.60;;;;;;;;;;5111547;28;20026;-86
2022/07/22 05:57:12;;;;;;;8.02;6.30;;;;;;;;;;5116236;28;20054;-84
2022/07/22 05:59:38;;;;;;;10.43;7.07;;;;;;;;;;5110256;28;20027;-83
2022/07/22 06:02:05;;;;;;;9.48;6.47;;;;;;;;;;5112097;28;20070;-83
2022/07/22 06:04:31;;;;;;;10.65;7.10;;;;;;;;;;5109336;28;20023;-84
2022/07/22 06:06:57;;;;;;;11.85;7.18;;;;;;;;;;5107643;28;20042;-83
2022/07/22 06:09:23;;;;;;;9.77;6.07;;;;;;;;;;5107492;28;20043;-86
2022/07/22 06:11:49;;;;;;;9.43;6.82;;;;;;;;;;5110630;28;20024;-85
2022/07/22 06:14:15;;;;;;;9.15;6.45;;;;;;;;;;5113209;28;20043;-84
2022/07/22 06:16:43;;;;;;;11.35;6.30;;;;;;;;;;5111268;28;20022;-84
2022/07/22 06:19:09;;;;;;;8.70;6.90;;;;;;;;;;5107581;28;20516;-83
2022/07/22 06:21:36;;;;;;;12.95;6.75;;;;;;;;;;5102817;28;20028;-84
2022/07/22 06:24:02;;;;;;;12.07;7.40;;;;;;;;;;5112477;28;20058;-85
2022/07/22 06:26:28;;;;;;;9.27;6.75;;;;;;;;;;5117242;28;20032;-85
2022/07/22 06:28:54;;;;;;;9.98;6.85;;;;;;;;;;5113138;28;20080;-84
2022/07/22 06:31:20;;;;;;;11.52;7.03;;;;;;;;;;5115874;28;19996;-86
2022/07/22 06:33:46;;;;;;;12.13;7.05;;;;;;;;;;5115162;28;20024;-85
2022/07/22 06:36:14;;;;;;;11.60;6.90;;;;;;;;;;5119788;28;20028;-83
2022/07/22 06:38:40;;;;;;;13.00;7.60;;;;;;;;;;5123654;28;20030;-88
2022/07/22 06:41:06;;;;;;;10.35;6.47;;;;;;;;;;5113931;28;20058;-84
2022/07/22 06:43:32;;;;;;;9.75;6.93;;;;;;;;;;5124835;28;20028;-87
2022/07/22 06:45:58;;;;;;;12.25;7.05;;;;;;;;;;5113259;28;20032;-85
2022/07/22 06:48:24;;;;;;;12.38;6.55;;;;;;;;;;5118395;28;20019;-84
2022/07/22 06:50:50;;;;;;;10.07;6.88;;;;;;;;;;5120358;28;20035;-83
2022/07/22 06:53:16;;;;;;;10.77;6.88;;;;;;;;;;5116605;28;20056;-85
2022/07/22 06:55:42;;;;;;;10.50;6.35;;;;;;;;;;5111917;28;20024;-84
2022/07/22 06:58:08;;;;;;;12.20;6.50;;;;;;;;;;5099228;28;20095;-84
2022/07/22 07:00:34;;;;;;;10.13;6.93;;;;;;;;;;5118333;28;20067;-86
2022/07/22 07:03:01;;;;;;;11.43;5.82;;;;;;;;;;5121241;28;20066;-89
2022/07/22 07:05:28;;;;;;;8.88;5.97;;;;;;;;;;5109205;28;20024;-87
2022/07/22 07:07:55;;;;;;;9.60;6.40;;;;;;;;;;5113330;28;20028;-86
2022/07/22 07:10:21;;;;;;;10.90;6.53;;;;;;;;;;5118839;28;20027;-87
2022/07/22 07:12:47;;;;;;;8.65;6.10;;;;;;;;;;5108303;28;20020;-85
2022/07/22 07:15:13;;;;;;;8.30;6.00;;;;;;;;;;5116342;28;20031;-85
2022/07/22 07:17:39;;;;;;;8.68;5.85;;;;;;;;;;5118508;28;20016;-86
2022/07/22 07:20:06;;;;;;;13.23;7.88;;;;;;;;;;5108143;28;20101;-87
2022/07/22 07:22:32;;;;;;;10.85;5.93;;;;;;;;;;5112680;28;20097;-87
2022/07/22 07:25:02;;;;;;;11.88;6.13;;;;;;;;;;5113059;28;20028;-87
2022/07/22 07:27:28;;;;;;;9.82;5.63;;;;;;;;;;5110725;28;20111;-84
2022/07/22 07:29:54;;;;;;;9.23;5.88;;;;;;;;;;5112341;28;20051;-86
2022/07/22 07:32:20;;;;;;;9.52;5.43;;;;;;;;;;5117732;28;20024;-85
2022/07/22 07:34:47;;;;;;;9.90;5.70;;;;;;;;;;5110635;28;20023;-84
2022/07/22 07:37:15;;;;;;;10.13;6.03;;;;;;;;;;5114738;28;20024;-88
2022/07/22 07:39:41;;;;;;;9.25;5.88;;;;;;;;;;5114935;28;20027;-83
2022/07/22 07:42:07;;;;;;;8.68;5.88;;;;;;;;;;5109122;28;20027;-86
2022/07/22 07:44:33;;;;;;;9.45;6.15;;;;;;;;;;5114428;28;20027;-87
2022/07/22 07:47:02;;;;;;;9.13;6.00;;;;;;;;;;5105975;28;20043;-87
2022/07/22 07:49:28;;;;;;;11.63;6.40;;;;;;;;;;5110699;28;20016;-86
2022/07/22 07:51:54;;;;;;;8.65;6.15;;;;;;;;;;5115292;28;20050;-86
2022/07/22 07:54:20;;;;;;;10.50;5.65;;;;;;;;;;5115704;28;20023;-85
2022/07/22 07:56:46;;;;;;;8.13;5.45;;;;;;;;;;5111747;28;20106;-86
2022/07/22 07:59:12;;;;;;;9.95;6.45;;;;;;;;;;5117155;28;20062;-84
2022/07/22 08:01:38;;;;;;;9.77;6.15;;;;;;;;;;5108803;28;20031;-86
2022/07/22 08:04:04;;;;;;;12.02;6.22;;;;;;;;;;5118607;28;20031;-86
2022/07/22 08:06:31;;;;;;;10.23;6.53;;;;;;;;;;5117799;28;20031;-88
2022/07/22 08:08:57;;;;;;;11.07;6.18;;;;;;;;;;5114737;28;20038;-84
2022/07/22 08:11:23;;;;;;;9.43;5.90;;;;;;;;;;5107605;28;20103;-85
2022/07/22 08:13:49;;;;;;;9.90;6.10;;;;;;;;;;5098108;27;20028;-84
2022/07/22 08:16:15;;;;;;;8.52;5.20;;;;;;;;;;5098583;28;20030;-85
2022/07/22 08:18:41;;;;;;;8.75;5.80;;;;;;;;;;5099429;27;20055;-84
2022/07/22 08:21:07;;;;;;;8.88;6.32;;;;;;;;;;5096461;28;20481;-86
2022/07/22 08:23:34;;;;;;;8.93;6.05;;;;;;;;;;5104906;28;20043;-85
2022/07/22 08:26:00;;;;;;;10.43;6.00;;;;;;;;;;5097932;28;20028;-84
2022/07/22 08:28:26;;;;;;;10.13;6.20;;;;;;;;;;5095202;28;20027;-84
2022/07/22 08:30:52;;;;;;;9.60;6.03;;;;;;;;;;5095841;28;20040;-86
2022/07/22 08:33:18;;;;;;;7.97;6.00;;;;;;;;;;5113523;28;20020;-87
2022/07/22 08:35:45;;;;;;;9.80;5.68;;;;;;;;;;5117504;28;20103;-85
2022/07/22 08:38:11;;;;;;;11.73;5.93;;;;;;;;;;5118243;28;20023;-85
2022/07/22 08:40:37;;;;;;;8.07;5.88;;;;;;;;;;5112538;28;20121;-87
2022/07/22 08:43:03;;;;;;;9.80;6.28;;;;;;;;;;5122965;28;20103;-83
2022/07/22 08:45:30;;;;;;;7.93;5.78;;;;;;;;;;5121261;28;20053;-88
2022/07/22 08:47:56;;;;;;;9.27;6.50;;;;;;;;;;5113603;28;20036;-86
2022/07/22 08:50:23;;;;;;;9.43;6.10;;;;;;;;;;5113580;28;20055;-86
2022/07/22 08:52:49;;;;;;;10.90;6.20;;;;;;;;;;5108281;28;20024;-85
2022/07/22 08:55:15;;;;;;;9.18;6.43;;;;;;;;;;5117894;28;20023;-84
2022/07/22 08:57:45;;;;;;;8.43;6.20;;;25.40;97.10;;;;;;5119222;28;20473;-86
2022/07/22 09:00:13;;;;;;;8.60;6.63;;;;;;;;;;5117306;28;20043;-85
2022/07/22 09:02:40;;;;;;;7.25;5.88;;;;;;;;;;5108966;28;20149;-87
2022/07/22 09:05:07;;;;;;;8.23;6.53;;;;;;;;;;5102777;28;20178;-86
2022/07/22 09:07:35;;;;;;;7.43;5.72;;;;;;;;;;5114795;28;20031;-86
2022/07/22 09:10:08;;;;;;;8.20;6.30;;;25.70;97.00;;;;;;5113463;28;20024;-87
2022/07/22 09:12:35;;;;;;;9.30;6.35;;;;;;;;;;5113040;28;20028;-88
2022/07/22 09:15:02;;;;;;;9.50;6.32;;;;;;;;;;5111154;28;20024;-85
2022/07/22 09:17:32;;;;;;;8.15;6.15;;;;;;;;;;5109563;28;20106;-84
2022/07/22 09:19:59;;;;;;;8.10;6.40;;;;;;;;;;5113298;28;20032;-87
2022/07/22 09:22:32;;;;;;;7.70;5.80;;;;;;;;;;5116685;28;20039;-86
2022/07/22 09:24:59;;;;;;;8.60;6.03;;;;;;;;;;5117162;28;20088;-86
2022/07/22 09:27:25;;;;;;;10.35;6.22;;;;;;;;;;5105508;27;20024;-84
2022/07/22 09:29:52;;;;;;;10.88;6.45;;;;;;;;;;5104850;28;20600;-86
2022/07/22 09:32:18;;;;;;;9.90;6.25;;;;;;;;;;5105652;28;20074;-87
2022/07/22 09:34:44;;;;;;;8.43;5.88;;;;;;;;;;5102772;28;20079;-87
2022/07/22 09:37:12;;;;;;;10.90;6.80;;;;;;;;;;5103899;28;20100;-86
2022/07/22 09:39:38;;;;;;;9.13;5.85;;;;;;;;;;5100045;28;20030;-87
2022/07/22 09:42:07;;;;;;;10.40;6.57;;;27.00;94.20;;;;;;5106129;27;20035;-87
2022/07/22 09:44:34;;;;;;;10.48;6.85;;;;;;;;;;5107175;28;20042;-85
2022/07/22 09:47:00;;;;;;;9.25;6.20;;;;;;;;;;5110648;28;20047;-86
2022/07/22 09:49:40;;;;;;;8.57;5.97;;;;;;;;;;5110210;28;20036;-86
2022/07/22 09:52:06;;;;;;;10.38;5.97;;;;;;;;;;5107634;28;20044;-86
2022/07/22 09:54:32;;;;;;;11.20;6.60;;;;;;;;;;5114761;28;20043;-85
2022/07/22 09:56:59;;;;;;;8.35;6.15;;;;;;;;;;5108023;28;20469;-85
2022/07/22 09:59:25;;;;;;;8.45;6.20;;;;;;;;;;5104681;28;20042;-88
2022/07/22 10:01:55;;;;;;;9.73;6.10;;;;;;;;;;5105747;28;20020;-84
2022/07/22 10:04:21;;;;;;;8.88;6.65;;;;;;;;;;5111243;28;20035;-86
2022/07/22 10:06:51;;;;;;;8.65;6.35;;;;;;;;;;5106383;28;20046;-85
2022/07/22 10:09:17;;;;;;;;;;;27.40;92.40;;;;;;5104198;28;20541;-83
2022/07/22 10:11:46;;;;;;;9.65;6.60;;;;;;;;;;5107081;28;19936;-86
2022/07/22 10:14:17;;;;;;;9.47;6.03;;;;;;;;;;5109062;28;20042;-85
2022/07/22 10:16:43;;;;;;;10.65;6.55;;;;;;;;;;5104476;28;20274;-86
2022/07/22 10:19:10;;;;;;;9.18;6.13;;;;;;;;;;5121082;28;20030;-85
2022/07/22 10:21:37;;;;;;;8.77;6.25;;;;;;;;;;5113256;28;20027;-86
2022/07/22 10:24:09;;;;;;;8.07;6.30;;;;;;;;;;5109139;27;20119;-86
2022/07/22 10:26:57;;;;;;;8.55;6.53;;;;;;;;;;5102014;28;20036;-83
2022/07/22 10:29:27;;;;;;;9.85;5.88;;;28.20;91.40;;;;;;5114265;28;20095;-84
2022/07/22 10:32:32;;;;;;;10.55;6.75;;;28.40;90.70;;;;;;5116319;28;20034;-86
2022/07/22 10:34:58;;;;;;;8.70;6.22;;;;;;;;;;5084795;28;20456;-85
2022/07/22 10:37:38;;;;;;;7.60;5.78;;;;;;;;;;5073985;28;20085;-86
2022/07/22 10:40:13;;;;;;;6.40;5.30;;;;;;;;;;5083785;28;20073;-85
2022/07/22 10:43:00;;;;;;;9.05;6.20;;;28.50;90.00;;;;;;5105506;27;20095;-85
2022/07/22 10:45:35;;;;;;;9.93;6.57;;;28.50;89.80;;;;;;5107278;28;20040;-84
2022/07/22 10:48:08;;;;;;;8.45;6.40;;;28.50;90.00;;;;;;5109990;28;20554;-84
2022/07/22 10:50:37;;;;;;;8.27;6.00;;;;;;;;;;5105507;28;20036;-86
2022/07/22 10:53:08;;;;;;;9.03;6.00;;;;;;;;;;5117769;28;20423;-84
2022/07/22 10:55:34;;;;;;;8.38;5.90;;;;;;;;;;5100757;28;20024;-84
2022/07/22 10:58:00;;;;;;;10.60;6.35;;;;;;;;;;5106811;28;20024;-84
2022/07/22 11:00:27;;;;;;;10.20;6.05;;;;;;;;;;5117862;28;20043;-86
2022/07/22 11:02:53;;;;;;;7.63;5.65;;;;;;;;;;5105339;28;20438;-85
2022/07/22 11:05:26;;;;;;;9.30;5.70;;;;;;;;;;5113992;28;20049;-86
2022/07/22 11:07:52;;;;;;;6.40;5.40;;;;;;;;;;5109620;28;20131;-85
2022/07/22 11:10:19;;;;;;;9.82;6.25;;;;;;;;;;5104889;28;20024;-84
2022/07/22 11:12:48;;;;;;;9.00;5.65;;;;;;;;;;5111363;28;20019;-86
2022/07/22 11:15:14;;;;;;;;;;;29.50;85.80;;;;;;5119068;28;20024;-84
2022/07/22 11:17:41;;;;;;;6.63;5.78;;;;;;;;;;5118030;28;19950;-85
2022/07/22 11:20:08;;;;;;;8.15;5.72;;;;;;;;;;5113977;28;20572;-87
2022/07/22 11:22:34;;;;;;;9.85;7.32;;;;;;;;;;5108231;28;20032;-82
2022/07/22 11:25:01;;;;;;;7.65;5.68;;;;;;;;;;5112506;28;20053;-84
2022/07/22 11:27:27;;;;;;;7.68;5.97;;;;;;;;;;5095141;28;20443;-83
2022/07/22 11:29:54;;;;;;;7.68;6.60;;;;;;;;;;5110070;28;20035;-85
2022/07/22 11:32:23;;;;;;;7.88;6.15;;;;;;;;;;5107172;28;20023;-84
2022/07/22 11:34:50;;;;;;;8.48;5.15;;;;;;;;;;5102873;28;20020;-82
2022/07/22 11:37:17;;;;;;;8.98;5.68;;;;;;;;;;5106274;28;20035;-85
2022/07/22 11:39:43;;;;;;;8.88;5.35;;;;;;;;;;5112572;28;20127;-84
2022/07/22 11:42:09;;;;;;;7.03;5.43;;;;;;;;;;5106492;28;20121;-83
2022/07/22 11:44:36;;;;;;;6.65;5.30;;;;;;;;;;5111926;28;20033;-83
2022/07/22 11:47:03;;;;;;;6.60;5.35;;;;;;;;;;5109995;28;20114;-85
2022/07/22 11:49:30;;;;;;;8.90;5.40;;;;;;;;;;5111511;28;20087;-84
2022/07/22 11:51:56;;;;;;;7.05;4.95;;;;;;;;;;5113871;28;20024;-85
2022/07/22 11:54:22;;;;;;;5.80;4.88;;;;;;;;;;5107897;28;20027;-82
2022/07/22 11:56:48;;;;;;;7.18;5.10;;;;;;;;;;5102647;28;20024;-84
2022/07/22 11:59:17;;;;;;;6.38;5.47;;;;;;;;;;5112031;28;20074;-84
2022/07/22 12:01:44;;;;;;;10.03;4.97;;;;;;;;;;5111863;28;20555;-85
2022/07/22 12:04:11;;;;;;;7.05;5.38;;;;;;;;;;5115201;28;20019;-85
2022/07/22 12:06:39;;;;;;;10.45;5.68;;;;;;;;;;5113433;28;20028;-83
2022/07/22 12:09:13;;;;;;;7.40;5.40;;;;;;;;;;5095432;28;20032;-84
2022/07/22 12:11:44;;;;;;;6.22;4.78;;;;;;;;;;5105514;28;20024;-84
2022/07/22 12:14:13;;;;;;;8.45;5.30;;;;;;;;;;5109512;28;20039;-85
2022/07/22 12:16:40;;;;;;;8.63;5.00;;;30.40;76.80;;;;;;5115451;28;20024;-86
2022/07/22 12:19:07;;;;;;;5.80;4.97;;;;;;;;;;5112025;28;20028;-83
2022/07/22 12:21:35;;;;;;;7.43;5.15;;;;;;;;;;5107948;28;20031;-84
2022/07/22 12:24:02;;;;;;;8.57;5.63;;;;;;;;;;5116696;28;20579;-83
2022/07/22 12:26:45;;;;;;;8.60;5.50;;;;;;;;;;5109674;28;20047;-82
2022/07/22 12:29:15;;;;;;;9.98;5.50;;;;;;;;;;5105359;28;20035;-84
2022/07/22 12:31:42;;;;;;;8.45;5.30;;;;;;;;;;5110283;28;20027;-82
2022/07/22 12:34:08;;;;;;;8.68;5.00;;;;;;;;;;5109554;28;20044;-83
2022/07/22 12:36:34;;;;;;;8.02;4.95;;;;;;;;;;5103400;28;20020;-85
2022/07/22 12:39:11;;;;;;;8.90;5.55;;;;;;;;;;5100335;28;20036;-85
2022/07/22 12:41:44;;;;;;;8.23;5.20;;;;;;;;;;5107663;28;20473;-84
2022/07/22 12:44:18;;;;;;;7.25;5.32;;;31.30;75.00;;;;;;5109982;28;20020;-85
2022/07/22 12:46:45;;;;;;;7.63;5.65;;;;;;;;;;5110201;28;20087;-82
2022/07/22 12:49:11;;;;;;;7.45;6.18;;;;;;;;;;5114130;28;20032;-83
2022/07/22 12:51:37;;;;;;;7.88;5.38;;;;;;;;;;5113151;28;20057;-83
2022/07/22 12:54:03;;;;;;;9.10;5.28;;;;;;;;;;5108423;28;20036;-82
2022/07/22 12:56:29;;;;;;;8.52;5.57;;;;;;;;;;5111953;28;20015;-84
2022/07/22 12:58:55;;;;;;;6.70;4.82;;;;;;;;;;5106908;28;20036;-83
2022/07/22 13:01:21;;;;;;;6.05;5.40;;;;;;;;;;5102601;27;20046;-83
2022/07/22 13:03:47;;;;;;;6.53;5.30;;;;;;;;;;5104680;28;20020;-84
2022/07/22 13:06:13;;;;;;;7.47;4.90;;;;;;;;;;5106454;28;20535;-85
2022/07/22 13:08:39;;;;;;;7.45;5.20;;;;;;;;;;5105981;28;20038;-85
2022/07/22 13:11:05;;;;;;;5.57;4.43;;;;;;;;;;5110596;28;20114;-84
2022/07/22 13:13:31;;;;;;;6.82;4.95;;;;;;;;;;5112100;28;20024;-85
2022/07/22 13:15:57;;;;;;;6.38;5.25;;;;;;;;;;5112275;28;20103;-83
2022/07/22 13:18:23;;;;;;;9.23;5.00;;;;;;;;;;5107942;28;20026;-84
2022/07/22 13:20:50;;;;;;;9.95;5.20;;;;;;;;;;5104826;28;20024;-83
2022/07/22 13:23:16;;;;;;;7.68;4.93;;;;;;;;;;5101156;28;20023;-83
2022/07/22 13:25:42;;;;;;;6.57;4.80;;;;;;;;;;5107040;28;20026;-84
2022/07/22 13:28:08;;;;;;;6.50;5.00;;;;;;;;;;5111357;28;20038;-84
2022/07/22 13:30:36;;;;;;;6.78;5.15;;;;;;;;;;5105872;28;20024;-84
2022/07/22 13:33:02;;;;;;;6.90;4.95;;;;;;;;;;5113269;28;20024;-85
2022/07/22 13:35:29;;;;;;;6.35;4.90;;;;;;;;;;5110019;28;20032;-85
2022/07/22 13:37:55;;;;;;;7.40;4.75;;;;;;;;;;5108189;28;20519;-85
2022/07/22 13:40:21;;;;;;;6.63;4.80;;;;;;;;;;5114795;28;20531;-85
2022/07/22 13:42:47;;;;;;;8.88;5.78;;;;;;;;;;5110913;28;20019;-83
2022/07/22 13:45:14;;;;;;;8.30;5.07;;;;;;;;;;5114969;28;20091;-84
2022/07/22 13:47:41;;;;;;;7.63;5.20;;;;;;;;;;5119210;28;20024;-85
2022/07/22 13:50:07;;;;;;;7.00;5.00;;;;;;;;;;5117429;28;20027;-84
2022/07/22 13:52:34;;;;;;;7.47;4.80;;;;;;;;;;5115037;28;20047;-84
2022/07/22 13:55:00;;;;;;;6.18;4.72;;;;;;;;;;5103996;28;20024;-84
2022/07/22 13:57:27;;;;;;;5.53;4.70;;;;;;;;;;5109852;28;20026;-84
2022/07/22 13:59:53;;;;;;;8.20;4.85;;;;;;;;;;5112909;28;20722;-86
2022/07/22 14:02:19;;;;;;;6.93;4.70;;;;;;;;;;5118544;28;20024;-84
2022/07/22 14:04:47;;;;;;;7.28;4.85;;;;;;;;;;5116185;28;20051;-84
2022/07/22 14:07:13;;;;;;;7.53;4.57;;;;;;;;;;5114506;28;20062;-85
2022/07/22 14:09:39;;;;;;;7.72;4.43;;;;;;;;;;5115871;28;20023;-84
2022/07/22 14:12:05;;;;;;;6.30;4.47;;;;;;;;;;5107546;28;20028;-81
2022/07/22 14:14:31;;;;;;;7.82;4.97;;;;;;;;;;5113394;28;20024;-83
2022/07/22 14:16:57;;;;;;;8.45;5.25;;;;;;;;;;5117954;28;20526;-84
2022/07/22 14:19:23;;;;;;;7.07;5.00;;;;;;;;;;5102032;28;20024;-83
2022/07/22 14:21:50;;;;;;;6.07;4.43;;;;;;;;;;5104149;28;20047;-84
2022/07/22 14:24:17;;;;;;;5.93;4.85;;;;;;;;;;5116181;28;20024;-84
2022/07/22 14:26:43;;;;;;;7.75;4.85;;;;;;;;;;5112769;28;20095;-85
2022/07/22 14:29:10;;;;;;;7.13;4.70;;;;;;;;;;5115192;28;20024;-84
2022/07/22 14:31:37;;;;;;;7.47;4.72;;;;;;;;;;5115344;28;20039;-84
2022/07/22 14:34:03;;;;;;;9.23;4.82;;;;;;;;;;5115457;28;20039;-84